sensor_id;sensor_type;location;lat;lon;timestamp;temperature;humidity
61004;DHT22;46889;37.310;13.582;2023-07-29T00:02:02;25.10;99.90
61004;DHT22;46889;37.310;13.582;2023-07-29T00:04:29;25.00;99.90
61004;DHT22;46889;37.310;13.582;2023-07-29T00:06:55;24.90;99.90
61004;DHT22;46889;37.310;13.582;2023-07-29T00:09:21;25.00;99.90
61004;DHT22;46889;37.310;13.582;2023-07-29T00:11:47;25.00;99.90
61004;DHT22;46889;37.310;13.582;2023-07-29T00:14:13;24.90;99.90
61004;DHT22;46889;37.310;13.582;2023-07-29T00:16:38;24.90;99.90
61004;DHT22;46889;37.310;13.582;2023-07-29T00:19:04;24.90;99.90
61004;DHT22;46889;37.310;13.582;2023-07-29T00:21:30;24.90;99.90
61004;DHT22;46889;37.310;13.582;2023-07-29T00:23:56;24.90;99.90
61004;DHT22;46889;37.310;13.582;2023-07-29T00:26:23;25.00;99.90
61004;DHT22;46889;37.310;13.582;2023-07-29T00:28:51;24.80;99.90
61004;DHT22;46889;37.310;13.582;2023-07-29T00:31:17;24.70;99.90
61004;DHT22;46889;37.310;13.582;2023-07-29T00:33:43;24.70;99.90
61004;DHT22;46889;37.310;13.582;2023-07-29T00:36:08;24.60;99.90
61004;DHT22;46889;37.310;13.582;2023-07-29T00:38:34;24.60;99.90
61004;DHT22;46889;37.310;13.582;2023-07-29T00:41:01;24.50;99.90
61004;DHT22;46889;37.310;13.582;2023-07-29T00:43:28;24.60;99.90
61004;DHT22;46889;37.310;13.582;2023-07-29T00:45:54;24.60;99.90
61004;DHT22;46889;37.310;13.582;2023-07-29T00:48:20;24.50;99.90
61004;DHT22;46889;37.310;13.582;2023-07-29T00:50:46;24.40;99.90
61004;DHT22;46889;37.310;13.582;2023-07-29T00:53:12;24.30;99.90
61004;DHT22;46889;37.310;13.582;2023-07-29T00:55:38;24.30;99.90
61004;DHT22;46889;37.310;13.582;2023-07-29T00:58:04;24.40;99.90
61004;DHT22;46889;37.310;13.582;2023-07-29T01:00:30;24.40;99.90
61004;DHT22;46889;37.310;13.582;2023-07-29T01:02:55;24.30;99.90
61004;DHT22;46889;37.310;13.582;2023-07-29T01:05:21;24.20;99.90
61004;DHT22;46889;37.310;13.582;2023-07-29T01:08:04;24.10;99.90
61004;DHT22;46889;37.310;13.582;2023-07-29T01:10:37;24.10;99.90
61004;DHT22;46889;37.310;13.582;2023-07-29T01:13:23;24.20;99.90
61004;DHT22;46889;37.310;13.582;2023-07-29T01:18:18;24.40;99.90
61004;DHT22;46889;37.310;13.582;2023-07-29T01:20:46;24.40;99.90
61004;DHT22;46889;37.310;13.582;2023-07-29T01:23:12;24.40;99.90
61004;DHT22;46889;37.310;13.582;2023-07-29T01:25:38;24.40;99.90
61004;DHT22;46889;37.310;13.582;2023-07-29T01:28:04;24.50;99.90
61004;DHT22;46889;37.310;13.582;2023-07-29T01:30:31;24.50;99.90
61004;DHT22;46889;37.310;13.582;2023-07-29T01:32:59;24.40;99.90
61004;DHT22;46889;37.310;13.582;2023-07-29T01:38:09;24.40;99.90
61004;DHT22;46889;37.310;13.582;2023-07-29T01:40:36;24.50;99.90
61004;DHT22;46889;37.310;13.582;2023-07-29T01:43:02;24.60;99.90
61004;DHT22;46889;37.310;13.582;2023-07-29T01:45:28;24.70;99.90
61004;DHT22;46889;37.310;13.582;2023-07-29T01:47:57;24.80;99.90
61004;DHT22;46889;37.310;13.582;2023-07-29T01:50:22;24.90;99.90
61004;DHT22;46889;37.310;13.582;2023-07-29T01:52:48;24.80;99.90
61004;DHT22;46889;37.310;13.582;2023-07-29T01:55:14;24.80;99.90
61004;DHT22;46889;37.310;13.582;2023-07-29T01:57:40;24.90;99.90
61004;DHT22;46889;37.310;13.582;2023-07-29T02:00:06;24.70;99.90
61004;DHT22;46889;37.310;13.582;2023-07-29T02:02:32;24.70;99.90
61004;DHT22;46889;37.310;13.582;2023-07-29T02:04:57;24.60;99.90
61004;DHT22;46889;37.310;13.582;2023-07-29T02:07:24;24.40;99.90
61004;DHT22;46889;37.310;13.582;2023-07-29T02:09:51;24.40;99.90
61004;DHT22;46889;37.310;13.582;2023-07-29T02:12:17;24.40;99.90
61004;DHT22;46889;37.310;13.582;2023-07-29T02:14:43;24.40;99.90
61004;DHT22;46889;37.310;13.582;2023-07-29T02:17:09;24.40;99.90
61004;DHT22;46889;37.310;13.582;2023-07-29T02:19:35;24.30;99.90
61004;DHT22;46889;37.310;13.582;2023-07-29T02:22:01;24.20;99.90
61004;DHT22;46889;37.310;13.582;2023-07-29T02:24:26;24.30;99.90
61004;DHT22;46889;37.310;13.582;2023-07-29T02:26:52;24.20;99.90
61004;DHT22;46889;37.310;13.582;2023-07-29T02:29:18;24.10;99.90
61004;DHT22;46889;37.310;13.582;2023-07-29T02:31:44;24.10;99.90
61004;DHT22;46889;37.310;13.582;2023-07-29T02:34:10;24.00;99.90
61004;DHT22;46889;37.310;13.582;2023-07-29T02:36:35;24.00;99.90
61004;DHT22;46889;37.310;13.582;2023-07-29T02:39:01;24.10;99.90
61004;DHT22;46889;37.310;13.582;2023-07-29T02:41:27;24.00;99.90
61004;DHT22;46889;37.310;13.582;2023-07-29T02:43:53;24.00;99.90
61004;DHT22;46889;37.310;13.582;2023-07-29T02:46:19;24.00;99.90
61004;DHT22;46889;37.310;13.582;2023-07-29T02:48:45;24.00;99.90
61004;DHT22;46889;37.310;13.582;2023-07-29T02:51:10;24.00;99.90
61004;DHT22;46889;37.310;13.582;2023-07-29T02:53:36;24.00;99.90
61004;DHT22;46889;37.310;13.582;2023-07-29T02:56:05;23.90;99.90
61004;DHT22;46889;37.310;13.582;2023-07-29T02:58:35;24.00;99.90
61004;DHT22;46889;37.310;13.582;2023-07-29T03:01:02;23.80;99.90
61004;DHT22;46889;37.310;13.582;2023-07-29T03:03:28;23.90;99.90
61004;DHT22;46889;37.310;13.582;2023-07-29T03:06:05;23.80;99.90
61004;DHT22;46889;37.310;13.582;2023-07-29T03:08:31;23.90;99.90
61004;DHT22;46889;37.310;13.582;2023-07-29T03:10:57;23.90;99.90
61004;DHT22;46889;37.310;13.582;2023-07-29T03:13:23;24.00;99.90
61004;DHT22;46889;37.310;13.582;2023-07-29T03:15:49;24.00;99.90
61004;DHT22;46889;37.310;13.582;2023-07-29T03:18:15;24.00;99.90
61004;DHT22;46889;37.310;13.582;2023-07-29T03:20:41;24.00;99.90
61004;DHT22;46889;37.310;13.582;2023-07-29T03:23:07;23.80;99.90
61004;DHT22;46889;37.310;13.582;2023-07-29T03:25:32;23.70;99.90
61004;DHT22;46889;37.310;13.582;2023-07-29T03:27:58;23.70;99.90
61004;DHT22;46889;37.310;13.582;2023-07-29T03:30:24;23.70;99.90
61004;DHT22;46889;37.310;13.582;2023-07-29T03:32:50;23.70;99.90
61004;DHT22;46889;37.310;13.582;2023-07-29T03:35:16;23.80;99.90
61004;DHT22;46889;37.310;13.582;2023-07-29T03:37:42;23.90;99.90
61004;DHT22;46889;37.310;13.582;2023-07-29T03:40:08;23.80;99.90
61004;DHT22;46889;37.310;13.582;2023-07-29T03:42:35;23.90;99.90
61004;DHT22;46889;37.310;13.582;2023-07-29T03:45:00;23.90;99.90
61004;DHT22;46889;37.310;13.582;2023-07-29T03:47:26;23.90;99.90
61004;DHT22;46889;37.310;13.582;2023-07-29T03:49:53;24.00;99.90
61004;DHT22;46889;37.310;13.582;2023-07-29T03:52:18;24.00;99.90
61004;DHT22;46889;37.310;13.582;2023-07-29T03:54:44;24.00;99.90
61004;DHT22;46889;37.310;13.582;2023-07-29T03:57:10;24.00;99.90
61004;DHT22;46889;37.310;13.582;2023-07-29T03:59:36;24.00;99.90
61004;DHT22;46889;37.310;13.582;2023-07-29T04:02:02;23.90;99.90
61004;DHT22;46889;37.310;13.582;2023-07-29T04:04:27;24.00;99.90
61004;DHT22;46889;37.310;13.582;2023-07-29T04:06:53;24.00;99.90
61004;DHT22;46889;37.310;13.582;2023-07-29T04:09:19;24.00;99.90
61004;DHT22;46889;37.310;13.582;2023-07-29T04:11:45;23.90;99.90
61004;DHT22;46889;37.310;13.582;2023-07-29T04:14:11;23.90;99.90
61004;DHT22;46889;37.310;13.582;2023-07-29T04:16:36;24.00;99.90
61004;DHT22;46889;37.310;13.582;2023-07-29T04:19:02;23.90;99.90
61004;DHT22;46889;37.310;13.582;2023-07-29T04:21:28;24.00;99.90
61004;DHT22;46889;37.310;13.582;2023-07-29T04:23:54;24.00;99.90
61004;DHT22;46889;37.310;13.582;2023-07-29T04:26:20;24.00;99.90
61004;DHT22;46889;37.310;13.582;2023-07-29T04:28:46;24.00;99.90
61004;DHT22;46889;37.310;13.582;2023-07-29T04:31:11;23.90;99.90
61004;DHT22;46889;37.310;13.582;2023-07-29T04:33:37;23.90;99.90
61004;DHT22;46889;37.310;13.582;2023-07-29T04:36:03;24.00;99.90
61004;DHT22;46889;37.310;13.582;2023-07-29T04:38:33;24.10;99.90
61004;DHT22;46889;37.310;13.582;2023-07-29T04:40:59;24.10;99.90
61004;DHT22;46889;37.310;13.582;2023-07-29T04:43:27;24.20;99.90
61004;DHT22;46889;37.310;13.582;2023-07-29T04:45:54;24.20;99.90
61004;DHT22;46889;37.310;13.582;2023-07-29T04:48:19;24.40;99.90
61004;DHT22;46889;37.310;13.582;2023-07-29T04:50:45;24.40;99.90
61004;DHT22;46889;37.310;13.582;2023-07-29T04:53:11;24.40;99.90
61004;DHT22;46889;37.310;13.582;2023-07-29T04:55:37;24.50;99.90
61004;DHT22;46889;37.310;13.582;2023-07-29T04:58:03;24.50;99.90
61004;DHT22;46889;37.310;13.582;2023-07-29T05:00:29;24.50;99.90
61004;DHT22;46889;37.310;13.582;2023-07-29T05:02:54;24.60;99.90
61004;DHT22;46889;37.310;13.582;2023-07-29T05:05:20;24.60;99.90
61004;DHT22;46889;37.310;13.582;2023-07-29T05:07:46;24.70;99.90
61004;DHT22;46889;37.310;13.582;2023-07-29T05:10:12;24.90;99.90
61004;DHT22;46889;37.310;13.582;2023-07-29T05:12:38;25.10;99.90
61004;DHT22;46889;37.310;13.582;2023-07-29T05:15:04;25.30;99.90
61004;DHT22;46889;37.310;13.582;2023-07-29T05:17:30;25.50;99.90
61004;DHT22;46889;37.310;13.582;2023-07-29T05:19:56;25.80;99.90
61004;DHT22;46889;37.310;13.582;2023-07-29T05:22:21;25.90;99.90
61004;DHT22;46889;37.310;13.582;2023-07-29T05:24:47;25.90;99.90
61004;DHT22;46889;37.310;13.582;2023-07-29T05:27:13;26.30;99.90
61004;DHT22;46889;37.310;13.582;2023-07-29T05:29:39;26.60;99.90
61004;DHT22;46889;37.310;13.582;2023-07-29T05:32:05;26.80;99.90
61004;DHT22;46889;37.310;13.582;2023-07-29T05:34:30;27.10;99.90
61004;DHT22;46889;37.310;13.582;2023-07-29T05:36:56;27.30;99.90
61004;DHT22;46889;37.310;13.582;2023-07-29T05:39:22;27.70;99.90
61004;DHT22;46889;37.310;13.582;2023-07-29T05:41:49;27.60;99.90
61004;DHT22;46889;37.310;13.582;2023-07-29T05:44:15;27.90;99.90
61004;DHT22;46889;37.310;13.582;2023-07-29T05:46:41;28.10;99.90
61004;DHT22;46889;37.310;13.582;2023-07-29T05:49:07;28.10;99.90
61004;DHT22;46889;37.310;13.582;2023-07-29T05:51:32;28.40;99.90
61004;DHT22;46889;37.310;13.582;2023-07-29T05:53:58;29.00;99.90
61004;DHT22;46889;37.310;13.582;2023-07-29T05:56:24;29.30;99.90
61004;DHT22;46889;37.310;13.582;2023-07-29T05:58:50;29.40;99.90
61004;DHT22;46889;37.310;13.582;2023-07-29T06:01:16;29.60;99.90
61004;DHT22;46889;37.310;13.582;2023-07-29T06:03:42;30.80;99.90
61004;DHT22;46889;37.310;13.582;2023-07-29T06:06:08;31.60;99.90
61004;DHT22;46889;37.310;13.582;2023-07-29T06:08:33;32.00;99.90
61004;DHT22;46889;37.310;13.582;2023-07-29T06:11:00;32.30;99.90
61004;DHT22;46889;37.310;13.582;2023-07-29T06:13:25;32.80;99.90
61004;DHT22;46889;37.310;13.582;2023-07-29T06:15:51;32.30;99.90
61004;DHT22;46889;37.310;13.582;2023-07-29T06:18:17;33.40;99.90
61004;DHT22;46889;37.310;13.582;2023-07-29T06:20:43;34.10;99.90
61004;DHT22;46889;37.310;13.582;2023-07-29T06:23:09;33.40;99.90
61004;DHT22;46889;37.310;13.582;2023-07-29T06:25:34;32.40;99.90
61004;DHT22;46889;37.310;13.582;2023-07-29T06:28:00;31.20;99.90
61004;DHT22;46889;37.310;13.582;2023-07-29T06:30:26;30.40;99.90
61004;DHT22;46889;37.310;13.582;2023-07-29T06:32:52;30.60;99.90
61004;DHT22;46889;37.310;13.582;2023-07-29T06:35:18;30.00;99.90
61004;DHT22;46889;37.310;13.582;2023-07-29T06:37:43;30.60;99.90
61004;DHT22;46889;37.310;13.582;2023-07-29T06:40:09;31.80;99.90
61004;DHT22;46889;37.310;13.582;2023-07-29T06:42:35;32.90;99.90
61004;DHT22;46889;37.310;13.582;2023-07-29T06:45:03;34.50;99.90
61004;DHT22;46889;37.310;13.582;2023-07-29T06:47:28;35.60;99.90
61004;DHT22;46889;37.310;13.582;2023-07-29T06:49:54;36.50;99.90
61004;DHT22;46889;37.310;13.582;2023-07-29T06:52:20;37.00;99.90
61004;DHT22;46889;37.310;13.582;2023-07-29T06:54:46;37.60;99.90
61004;DHT22;46889;37.310;13.582;2023-07-29T06:57:12;37.30;99.90
61004;DHT22;46889;37.310;13.582;2023-07-29T06:59:37;37.70;99.90
61004;DHT22;46889;37.310;13.582;2023-07-29T07:02:03;38.50;99.90
61004;DHT22;46889;37.310;13.582;2023-07-29T07:04:29;38.30;99.90
61004;DHT22;46889;37.310;13.582;2023-07-29T07:06:55;38.00;99.90
61004;DHT22;46889;37.310;13.582;2023-07-29T07:09:21;37.40;99.90
61004;DHT22;46889;37.310;13.582;2023-07-29T07:11:47;38.20;99.90
61004;DHT22;46889;37.310;13.582;2023-07-29T07:14:13;38.60;99.90
61004;DHT22;46889;37.310;13.582;2023-07-29T07:16:38;38.10;99.90
61004;DHT22;46889;37.310;13.582;2023-07-29T07:19:04;38.30;99.90
61004;DHT22;46889;37.310;13.582;2023-07-29T07:21:30;38.50;99.90
61004;DHT22;46889;37.310;13.582;2023-07-29T07:23:58;38.80;99.90
61004;DHT22;46889;37.310;13.582;2023-07-29T07:26:23;38.20;99.90
61004;DHT22;46889;37.310;13.582;2023-07-29T07:28:49;38.00;99.90
61004;DHT22;46889;37.310;13.582;2023-07-29T07:31:17;37.60;99.90
61004;DHT22;46889;37.310;13.582;2023-07-29T07:33:43;37.50;99.90
61004;DHT22;46889;37.310;13.582;2023-07-29T07:36:09;36.30;99.90
61004;DHT22;46889;37.310;13.582;2023-07-29T07:38:35;36.10;99.90
61004;DHT22;46889;37.310;13.582;2023-07-29T07:41:01;36.30;99.90
61004;DHT22;46889;37.310;13.582;2023-07-29T07:43:27;35.40;99.90
61004;DHT22;46889;37.310;13.582;2023-07-29T07:45:58;34.50;99.90
61004;DHT22;46889;37.310;13.582;2023-07-29T07:48:25;35.10;99.90
61004;DHT22;46889;37.310;13.582;2023-07-29T07:50:51;34.70;99.90
61004;DHT22;46889;37.310;13.582;2023-07-29T07:53:16;35.00;99.90
61004;DHT22;46889;37.310;13.582;2023-07-29T07:55:42;35.30;99.90
61004;DHT22;46889;37.310;13.582;2023-07-29T07:58:08;35.00;99.90
61004;DHT22;46889;37.310;13.582;2023-07-29T08:00:34;35.40;99.90
61004;DHT22;46889;37.310;13.582;2023-07-29T08:03:00;35.50;99.90
61004;DHT22;46889;37.310;13.582;2023-07-29T08:05:25;35.50;99.90
61004;DHT22;46889;37.310;13.582;2023-07-29T08:07:51;35.10;99.90
61004;DHT22;46889;37.310;13.582;2023-07-29T08:10:17;35.20;99.90
61004;DHT22;46889;37.310;13.582;2023-07-29T08:12:43;35.50;99.90
61004;DHT22;46889;37.310;13.582;2023-07-29T08:15:09;36.00;99.90
61004;DHT22;46889;37.310;13.582;2023-07-29T08:17:34;35.90;99.90
61004;DHT22;46889;37.310;13.582;2023-07-29T08:20:00;35.70;99.90
61004;DHT22;46889;37.310;13.582;2023-07-29T08:22:26;35.40;99.90
61004;DHT22;46889;37.310;13.582;2023-07-29T08:24:52;35.40;99.90
61004;DHT22;46889;37.310;13.582;2023-07-29T08:27:18;34.90;99.90
61004;DHT22;46889;37.310;13.582;2023-07-29T08:29:43;34.90;99.90
61004;DHT22;46889;37.310;13.582;2023-07-29T08:32:09;34.70;99.90
61004;DHT22;46889;37.310;13.582;2023-07-29T08:34:35;34.80;99.90
61004;DHT22;46889;37.310;13.582;2023-07-29T08:37:01;34.80;99.90
61004;DHT22;46889;37.310;13.582;2023-07-29T08:39:27;35.20;99.90
61004;DHT22;46889;37.310;13.582;2023-07-29T08:42:09;35.20;99.90
61004;DHT22;46889;37.310;13.582;2023-07-29T08:44:43;35.10;99.90
61004;DHT22;46889;37.310;13.582;2023-07-29T08:47:09;35.20;99.90
61004;DHT22;46889;37.310;13.582;2023-07-29T08:49:35;34.80;99.90
61004;DHT22;46889;37.310;13.582;2023-07-29T08:52:01;34.90;99.90
61004;DHT22;46889;37.310;13.582;2023-07-29T08:54:27;34.80;99.90
61004;DHT22;46889;37.310;13.582;2023-07-29T08:56:54;34.80;99.90
61004;DHT22;46889;37.310;13.582;2023-07-29T08:59:20;34.80;99.90
61004;DHT22;46889;37.310;13.582;2023-07-29T09:01:46;34.90;99.90
61004;DHT22;46889;37.310;13.582;2023-07-29T09:04:12;35.00;99.90
61004;DHT22;46889;37.310;13.582;2023-07-29T09:06:39;35.10;99.90
61004;DHT22;46889;37.310;13.582;2023-07-29T09:09:05;34.70;99.90
61004;DHT22;46889;37.310;13.582;2023-07-29T09:11:31;34.40;99.90
61004;DHT22;46889;37.310;13.582;2023-07-29T09:13:56;34.70;99.90
61004;DHT22;46889;37.310;13.582;2023-07-29T09:16:22;34.60;99.90
61004;DHT22;46889;37.310;13.582;2023-07-29T09:18:49;34.40;99.90
61004;DHT22;46889;37.310;13.582;2023-07-29T09:21:16;34.40;99.90
61004;DHT22;46889;37.310;13.582;2023-07-29T09:23:43;33.90;99.90
61004;DHT22;46889;37.310;13.582;2023-07-29T09:26:09;33.60;99.90
61004;DHT22;46889;37.310;13.582;2023-07-29T09:28:36;33.70;99.90
61004;DHT22;46889;37.310;13.582;2023-07-29T09:31:02;33.40;99.90
61004;DHT22;46889;37.310;13.582;2023-07-29T09:33:34;32.70;99.90
61004;DHT22;46889;37.310;13.582;2023-07-29T09:36:08;33.00;99.90
61004;DHT22;46889;37.310;13.582;2023-07-29T09:38:34;32.80;99.90
61004;DHT22;46889;37.310;13.582;2023-07-29T09:41:01;33.20;99.90
61004;DHT22;46889;37.310;13.582;2023-07-29T09:43:36;33.30;99.90
61004;DHT22;46889;37.310;13.582;2023-07-29T09:46:02;33.30;99.90
61004;DHT22;46889;37.310;13.582;2023-07-29T09:48:32;33.70;99.90
61004;DHT22;46889;37.310;13.582;2023-07-29T09:50:58;33.70;99.90
61004;DHT22;46889;37.310;13.582;2023-07-29T09:53:24;33.80;99.90
61004;DHT22;46889;37.310;13.582;2023-07-29T09:55:50;33.80;99.90
61004;DHT22;46889;37.310;13.582;2023-07-29T09:58:27;34.10;99.90
61004;DHT22;46889;37.310;13.582;2023-07-29T10:00:53;33.70;99.90
61004;DHT22;46889;37.310;13.582;2023-07-29T10:03:20;34.00;99.90
61004;DHT22;46889;37.310;13.582;2023-07-29T10:05:46;34.10;99.90
61004;DHT22;46889;37.310;13.582;2023-07-29T10:08:12;34.00;99.90
61004;DHT22;46889;37.310;13.582;2023-07-29T10:10:41;34.00;99.90
61004;DHT22;46889;37.310;13.582;2023-07-29T10:13:07;33.70;99.90
61004;DHT22;46889;37.310;13.582;2023-07-29T10:15:33;33.80;99.90
61004;DHT22;46889;37.310;13.582;2023-07-29T10:17:59;34.00;99.90
61004;DHT22;46889;37.310;13.582;2023-07-29T10:20:25;34.10;99.90
61004;DHT22;46889;37.310;13.582;2023-07-29T10:22:51;33.90;99.90
61004;DHT22;46889;37.310;13.582;2023-07-29T10:25:18;33.80;99.90
61004;DHT22;46889;37.310;13.582;2023-07-29T10:30:36;33.40;99.90
61004;DHT22;46889;37.310;13.582;2023-07-29T10:33:03;33.40;99.90
61004;DHT22;46889;37.310;13.582;2023-07-29T10:35:33;33.70;99.90
61004;DHT22;46889;37.310;13.582;2023-07-29T10:37:59;33.60;99.90
61004;DHT22;46889;37.310;13.582;2023-07-29T10:40:25;33.90;99.90
61004;DHT22;46889;37.310;13.582;2023-07-29T10:43:09;34.00;99.90
61004;DHT22;46889;37.310;13.582;2023-07-29T10:45:38;34.00;99.90
61004;DHT22;46889;37.310;13.582;2023-07-29T10:53:43;33.70;99.90
61004;DHT22;46889;37.310;13.582;2023-07-29T10:56:09;33.50;99.90
61004;DHT22;46889;37.310;13.582;2023-07-29T10:58:34;33.50;99.90
61004;DHT22;46889;37.310;13.582;2023-07-29T11:01:00;33.50;99.90
61004;DHT22;46889;37.310;13.582;2023-07-29T11:03:26;33.40;99.90
61004;DHT22;46889;37.310;13.582;2023-07-29T11:05:54;33.20;99.90
61004;DHT22;46889;37.310;13.582;2023-07-29T11:08:26;33.40;99.90
61004;DHT22;46889;37.310;13.582;2023-07-29T11:11:02;33.50;99.90
61004;DHT22;46889;37.310;13.582;2023-07-29T11:13:29;33.50;99.90
61004;DHT22;46889;37.310;13.582;2023-07-29T11:15:55;33.60;99.90
61004;DHT22;46889;37.310;13.582;2023-07-29T11:18:28;33.70;99.90
61004;DHT22;46889;37.310;13.582;2023-07-29T11:20:55;33.70;99.90
61004;DHT22;46889;37.310;13.582;2023-07-29T11:23:26;33.60;99.90
61004;DHT22;46889;37.310;13.582;2023-07-29T11:25:52;33.80;99.90
61004;DHT22;46889;37.310;13.582;2023-07-29T11:28:18;33.70;99.90
61004;DHT22;46889;37.310;13.582;2023-07-29T11:30:44;33.70;99.90
61004;DHT22;46889;37.310;13.582;2023-07-29T11:33:10;33.80;99.90
61004;DHT22;46889;37.310;13.582;2023-07-29T11:35:36;33.80;99.90
61004;DHT22;46889;37.310;13.582;2023-07-29T11:38:03;33.70;99.90
61004;DHT22;46889;37.310;13.582;2023-07-29T11:40:29;33.70;99.90
61004;DHT22;46889;37.310;13.582;2023-07-29T11:42:55;33.80;99.90
61004;DHT22;46889;37.310;13.582;2023-07-29T11:45:21;33.90;99.90
61004;DHT22;46889;37.310;13.582;2023-07-29T11:47:47;34.10;99.90
61004;DHT22;46889;37.310;13.582;2023-07-29T11:50:13;33.90;99.90
61004;DHT22;46889;37.310;13.582;2023-07-29T11:52:40;33.60;99.90
61004;DHT22;46889;37.310;13.582;2023-07-29T11:55:06;33.70;99.90
61004;DHT22;46889;37.310;13.582;2023-07-29T11:57:36;33.60;99.90
61004;DHT22;46889;37.310;13.582;2023-07-29T12:00:02;33.50;99.90
61004;DHT22;46889;37.310;13.582;2023-07-29T12:02:30;33.40;99.90
61004;DHT22;46889;37.310;13.582;2023-07-29T12:04:56;33.50;99.90
61004;DHT22;46889;37.310;13.582;2023-07-29T12:07:22;33.60;99.90
61004;DHT22;46889;37.310;13.582;2023-07-29T12:09:48;33.50;99.90
61004;DHT22;46889;37.310;13.582;2023-07-29T12:12:14;33.60;99.90
61004;DHT22;46889;37.310;13.582;2023-07-29T12:14:43;33.80;99.90
61004;DHT22;46889;37.310;13.582;2023-07-29T12:17:09;33.40;99.90
61004;DHT22;46889;37.310;13.582;2023-07-29T12:19:36;33.60;99.90
61004;DHT22;46889;37.310;13.582;2023-07-29T12:22:05;33.80;99.90
61004;DHT22;46889;37.310;13.582;2023-07-29T12:24:32;33.90;99.90
61004;DHT22;46889;37.310;13.582;2023-07-29T12:26:58;33.60;99.90
61004;DHT22;46889;37.310;13.582;2023-07-29T12:29:24;33.60;99.90
61004;DHT22;46889;37.310;13.582;2023-07-29T12:31:57;33.70;99.90
61004;DHT22;46889;37.310;13.582;2023-07-29T12:34:24;33.70;99.90
61004;DHT22;46889;37.310;13.582;2023-07-29T12:36:51;33.30;99.90
61004;DHT22;46889;37.310;13.582;2023-07-29T12:39:20;33.70;99.90
61004;DHT22;46889;37.310;13.582;2023-07-29T12:41:47;33.80;99.90
61004;DHT22;46889;37.310;13.582;2023-07-29T12:44:13;33.60;99.90
61004;DHT22;46889;37.310;13.582;2023-07-29T12:46:39;33.30;99.90
61004;DHT22;46889;37.310;13.582;2023-07-29T12:49:05;33.40;99.90
61004;DHT22;46889;37.310;13.582;2023-07-29T12:51:31;33.50;99.90
61004;DHT22;46889;37.310;13.582;2023-07-29T12:53:57;33.60;99.90
61004;DHT22;46889;37.310;13.582;2023-07-29T12:56:23;33.50;99.90
61004;DHT22;46889;37.310;13.582;2023-07-29T12:58:49;33.60;99.90
61004;DHT22;46889;37.310;13.582;2023-07-29T13:01:14;33.70;99.90
61004;DHT22;46889;37.310;13.582;2023-07-29T13:03:47;33.90;99.90
61004;DHT22;46889;37.310;13.582;2023-07-29T13:06:13;33.60;99.90
61004;DHT22;46889;37.310;13.582;2023-07-29T13:08:39;33.60;99.90
61004;DHT22;46889;37.310;13.582;2023-07-29T13:11:04;33.40;99.90
61004;DHT22;46889;37.310;13.582;2023-07-29T13:13:30;33.70;99.90
61004;DHT22;46889;37.310;13.582;2023-07-29T13:15:56;33.90;99.90
61004;DHT22;46889;37.310;13.582;2023-07-29T13:18:22;33.60;99.90
61004;DHT22;46889;37.310;13.582;2023-07-29T13:20:48;33.60;99.90
61004;DHT22;46889;37.310;13.582;2023-07-29T13:23:15;33.40;99.90
61004;DHT22;46889;37.310;13.582;2023-07-29T13:25:41;33.40;99.90
61004;DHT22;46889;37.310;13.582;2023-07-29T13:28:08;33.50;99.90
61004;DHT22;46889;37.310;13.582;2023-07-29T13:30:34;33.70;99.90
61004;DHT22;46889;37.310;13.582;2023-07-29T13:33:00;33.20;99.90
61004;DHT22;46889;37.310;13.582;2023-07-29T13:35:25;33.10;99.90
61004;DHT22;46889;37.310;13.582;2023-07-29T13:37:51;33.20;99.90
61004;DHT22;46889;37.310;13.582;2023-07-29T13:40:17;33.30;99.90
61004;DHT22;46889;37.310;13.582;2023-07-29T13:42:43;33.00;99.90
61004;DHT22;46889;37.310;13.582;2023-07-29T13:45:09;33.20;99.90
61004;DHT22;46889;37.310;13.582;2023-07-29T13:47:35;33.00;99.90
61004;DHT22;46889;37.310;13.582;2023-07-29T13:50:00;32.90;99.90
61004;DHT22;46889;37.310;13.582;2023-07-29T13:52:26;33.00;99.90
61004;DHT22;46889;37.310;13.582;2023-07-29T13:54:52;33.20;99.90
61004;DHT22;46889;37.310;13.582;2023-07-29T13:57:18;33.40;99.90
61004;DHT22;46889;37.310;13.582;2023-07-29T13:59:44;33.50;99.90
61004;DHT22;46889;37.310;13.582;2023-07-29T14:02:09;33.60;99.90
61004;DHT22;46889;37.310;13.582;2023-07-29T14:04:35;33.60;99.90
61004;DHT22;46889;37.310;13.582;2023-07-29T14:07:01;33.80;99.90
61004;DHT22;46889;37.310;13.582;2023-07-29T14:09:27;33.60;99.90
61004;DHT22;46889;37.310;13.582;2023-07-29T14:11:56;33.70;99.90
61004;DHT22;46889;37.310;13.582;2023-07-29T14:14:22;33.80;99.90
61004;DHT22;46889;37.310;13.582;2023-07-29T14:16:47;33.60;99.90
61004;DHT22;46889;37.310;13.582;2023-07-29T14:19:14;33.60;99.90
61004;DHT22;46889;37.310;13.582;2023-07-29T14:21:40;33.50;99.90
61004;DHT22;46889;37.310;13.582;2023-07-29T14:24:06;33.60;99.90
61004;DHT22;46889;37.310;13.582;2023-07-29T14:26:32;33.10;99.90
61004;DHT22;46889;37.310;13.582;2023-07-29T14:28:57;32.80;99.90
61004;DHT22;46889;37.310;13.582;2023-07-29T14:31:23;33.00;99.90
61004;DHT22;46889;37.310;13.582;2023-07-29T14:33:49;33.10;99.90
61004;DHT22;46889;37.310;13.582;2023-07-29T14:36:15;33.10;99.90
61004;DHT22;46889;37.310;13.582;2023-07-29T14:38:41;32.90;99.90
61004;DHT22;46889;37.310;13.582;2023-07-29T14:41:07;33.00;99.90
61004;DHT22;46889;37.310;13.582;2023-07-29T14:43:34;33.10;99.90
61004;DHT22;46889;37.310;13.582;2023-07-29T14:46:00;33.00;99.90
61004;DHT22;46889;37.310;13.582;2023-07-29T14:48:25;33.10;99.90
61004;DHT22;46889;37.310;13.582;2023-07-29T14:50:51;33.30;99.90
61004;DHT22;46889;37.310;13.582;2023-07-29T14:53:17;33.10;99.90
61004;DHT22;46889;37.310;13.582;2023-07-29T14:55:43;33.10;99.90
61004;DHT22;46889;37.310;13.582;2023-07-29T14:58:09;33.00;99.90
61004;DHT22;46889;37.310;13.582;2023-07-29T15:00:35;33.00;99.90
61004;DHT22;46889;37.310;13.582;2023-07-29T15:03:01;33.10;99.90
61004;DHT22;46889;37.310;13.582;2023-07-29T15:05:26;33.00;99.90
61004;DHT22;46889;37.310;13.582;2023-07-29T15:07:52;32.80;99.90
61004;DHT22;46889;37.310;13.582;2023-07-29T15:10:21;32.90;99.90
61004;DHT22;46889;37.310;13.582;2023-07-29T15:12:47;32.80;99.90
61004;DHT22;46889;37.310;13.582;2023-07-29T15:15:13;32.90;99.90
61004;DHT22;46889;37.310;13.582;2023-07-29T15:17:38;32.80;99.90
61004;DHT22;46889;37.310;13.582;2023-07-29T15:20:04;32.90;99.90
61004;DHT22;46889;37.310;13.582;2023-07-29T15:22:30;32.70;99.90
61004;DHT22;46889;37.310;13.582;2023-07-29T15:24:59;32.60;99.90